createdAt,value
2023-02-24T00:01:25.143Z,4.40
2023-02-24T00:04:11.532Z,5.43
2023-02-24T00:06:55.979Z,5.07
2023-02-24T00:09:41.022Z,6.20
2023-02-24T00:12:26.457Z,5.20
2023-02-24T00:15:12.944Z,4.93
2023-02-24T00:17:58.536Z,5.47
2023-02-24T00:20:42.682Z,4.67
2023-02-24T00:23:26.680Z,6.13
2023-02-24T00:26:12.918Z,5.73
2023-02-24T00:29:00.176Z,5.50
2023-02-24T00:31:47.385Z,4.93
2023-02-24T00:34:35.587Z,6.47
2023-02-24T00:37:24.059Z,5.00
2023-02-24T00:40:11.478Z,5.13
2023-02-24T00:42:56.465Z,5.23
2023-02-24T00:45:40.693Z,5.70
2023-02-24T00:48:28.365Z,6.33
2023-02-24T00:51:12.382Z,5.30
2023-02-24T00:53:58.062Z,5.83
2023-02-24T00:56:44.729Z,5.87
2023-02-24T00:59:29.249Z,5.43
2023-02-24T01:02:13.076Z,5.90
2023-02-24T01:04:58.708Z,5.10
2023-02-24T01:07:42.572Z,4.67
2023-02-24T01:10:28.451Z,4.87
2023-02-24T01:13:11.206Z,5.13
2023-02-24T01:16:02.430Z,5.20
2023-02-24T01:18:47.770Z,5.17
2023-02-24T01:21:33.032Z,4.80
2023-02-24T01:24:16.843Z,5.23
2023-02-24T01:27:00.971Z,4.67
2023-02-24T01:29:45.523Z,5.43
2023-02-24T01:32:32.126Z,5.43
2023-02-24T01:35:16.308Z,5.30
2023-02-24T01:38:01.846Z,4.97
2023-02-24T01:40:45.673Z,5.30
2023-02-24T01:43:29.746Z,5.57
2023-02-24T01:46:13.804Z,5.47
2023-02-24T01:49:02.779Z,4.93
2023-02-24T01:51:50.673Z,5.33
2023-02-24T01:54:43.125Z,5.17
2023-02-24T01:57:31.544Z,5.33
2023-02-24T02:00:32.861Z,5.07
2023-02-24T02:03:30.692Z,5.60
2023-02-24T02:06:17.897Z,5.70
2023-02-24T02:09:02.903Z,6.90
2023-02-24T02:11:49.321Z,6.53
2023-02-24T02:14:33.699Z,6.53
2023-02-24T02:17:27.240Z,5.87
2023-02-24T02:20:56.018Z,5.80
2023-02-24T02:23:59.017Z,5.67
2023-02-24T02:27:24.878Z,6.13
2023-02-24T02:30:25.560Z,5.70
2023-02-24T02:34:05.650Z,5.47
2023-02-24T02:37:01.807Z,6.47
2023-02-24T02:39:53.056Z,6.43
2023-02-24T02:42:44.160Z,6.20
2023-02-24T02:45:35.519Z,5.77
2023-02-24T02:48:26.543Z,6.90
2023-02-24T02:51:17.755Z,5.87
2023-02-24T02:54:10.301Z,6.07
2023-02-24T02:57:01.766Z,5.60
2023-02-24T02:59:52.726Z,6.50
2023-02-24T03:02:40.152Z,5.97
2023-02-24T03:05:29.844Z,5.80
2023-02-24T03:08:19.799Z,6.00
2023-02-24T03:11:08.922Z,7.10
2023-02-24T03:13:56.283Z,6.37
2023-02-24T03:16:43.002Z,7.63
2023-02-24T03:19:32.273Z,6.27
2023-02-24T03:22:20.730Z,6.97
2023-02-24T03:25:06.463Z,6.63
2023-02-24T03:28:01.775Z,7.00
2023-02-24T03:30:51.000Z,7.70
2023-02-24T03:33:41.067Z,7.37
2023-02-24T03:36:25.261Z,7.20
2023-02-24T03:39:12.169Z,7.33
2023-02-24T03:42:08.259Z,7.30
2023-02-24T03:44:58.240Z,9.00
2023-02-24T03:47:42.768Z,7.80
2023-02-24T03:50:31.840Z,7.20
2023-02-24T03:53:32.163Z,7.27
2023-02-24T03:56:28.918Z,5.80
2023-02-24T03:59:25.321Z,6.20
2023-02-24T04:02:19.465Z,6.20
2023-02-24T04:05:13.835Z,6.87
2023-02-24T04:08:13.124Z,8.90
2023-02-24T04:11:05.506Z,10.03
2023-02-24T04:13:54.308Z,9.20
2023-02-24T04:16:49.685Z,7.00
2023-02-24T04:19:40.617Z,7.70
2023-02-24T04:22:27.700Z,7.90
2023-02-24T04:25:15.928Z,8.13
2023-02-24T04:28:03.234Z,8.30
2023-02-24T04:30:50.983Z,9.40
2023-02-24T04:33:35.736Z,9.20
2023-02-24T04:36:22.305Z,10.53
2023-02-24T04:39:07.803Z,9.83
2023-02-24T04:41:53.189Z,8.33
2023-02-24T04:44:37.210Z,9.07
2023-02-24T04:47:21.336Z,9.93
2023-02-24T04:50:07.039Z,9.60
2023-02-24T04:52:57.385Z,9.23
2023-02-24T04:55:43.337Z,8.57
2023-02-24T04:58:28.742Z,9.47
2023-02-24T05:01:12.940Z,9.13
2023-02-24T05:03:57.020Z,8.53
2023-02-24T05:06:44.152Z,7.20
2023-02-24T05:09:30.318Z,6.97
2023-02-24T05:12:14.965Z,7.63
2023-02-24T05:15:01.332Z,8.83
2023-02-24T05:17:50.586Z,8.00
2023-02-24T05:20:54.764Z,6.70
2023-02-24T05:23:41.049Z,8.70
2023-02-24T05:26:27.373Z,7.90
2023-02-24T05:29:12.599Z,7.80
2023-02-24T05:32:00.069Z,6.63
2023-02-24T05:34:44.198Z,7.03
2023-02-24T05:37:28.602Z,7.63
2023-02-24T05:40:14.901Z,7.10
2023-02-24T05:43:04.200Z,8.10
2023-02-24T05:45:48.225Z,8.67
2023-02-24T05:48:35.275Z,8.33
2023-02-24T05:51:19.647Z,8.47
2023-02-24T05:54:04.822Z,7.97
2023-02-24T05:56:48.900Z,8.93
2023-02-24T05:59:34.678Z,8.10
2023-02-24T06:02:27.494Z,7.07
2023-02-24T06:05:25.411Z,8.93
2023-02-24T06:08:11.845Z,12.63
2023-02-24T06:10:55.862Z,9.33
2023-02-24T06:13:40.207Z,12.27
2023-02-24T06:16:26.277Z,10.47
2023-02-24T06:19:12.326Z,9.77
2023-02-24T06:21:56.954Z,7.57
2023-02-24T06:24:44.313Z,7.53
2023-02-24T06:27:28.583Z,7.50
2023-02-24T06:30:15.294Z,7.17
2023-02-24T06:33:00.901Z,9.60
2023-02-24T06:35:44.909Z,12.90
2023-02-24T06:38:28.967Z,8.73
2023-02-24T06:41:13.893Z,9.50
2023-02-24T06:43:59.034Z,6.60
2023-02-24T06:46:43.502Z,7.50
2023-02-24T06:49:29.350Z,5.97
2023-02-24T06:52:18.608Z,9.13
2023-02-24T06:55:04.768Z,9.77
2023-02-24T06:57:50.256Z,7.90
2023-02-24T07:00:39.079Z,6.13
2023-02-24T07:03:24.664Z,7.17
2023-02-24T07:06:22.111Z,6.97
2023-02-24T07:09:10.465Z,8.80
2023-02-24T07:11:56.883Z,5.47
2023-02-24T07:14:41.947Z,5.33
2023-02-24T07:17:26.593Z,8.60
2023-02-24T07:20:25.184Z,11.13
2023-02-24T07:23:11.146Z,8.17
2023-02-24T07:25:58.556Z,8.33
2023-02-24T07:28:44.915Z,6.47
2023-02-24T07:31:28.962Z,6.83
2023-02-24T07:34:15.193Z,6.03
2023-02-24T07:36:59.364Z,8.17
2023-02-24T07:39:44.502Z,6.43
2023-02-24T07:42:30.689Z,6.03
2023-02-24T07:45:15.547Z,8.97
2023-02-24T07:48:01.370Z,7.87
2023-02-24T07:50:45.604Z,8.60
2023-02-24T07:53:29.512Z,7.87
2023-02-24T07:56:17.859Z,8.27
2023-02-24T07:59:03.919Z,6.43
2023-02-24T08:01:50.862Z,6.93
2023-02-24T08:04:36.503Z,7.87
2023-02-24T08:07:25.006Z,8.00
2023-02-24T08:10:24.490Z,7.87
2023-02-24T08:13:12.097Z,9.90
2023-02-24T08:15:57.878Z,6.70
2023-02-24T08:18:49.006Z,6.30
2023-02-24T08:21:38.199Z,7.90
2023-02-24T08:24:25.425Z,12.03
2023-02-24T08:27:09.464Z,14.23
2023-02-24T08:30:00.003Z,22.13
2023-02-24T08:32:46.732Z,8.30
2023-02-24T08:35:35.764Z,8.50
2023-02-24T08:38:24.236Z,8.53
2023-02-24T08:41:18.154Z,8.17
2023-02-24T08:44:03.059Z,7.50
2023-02-24T08:46:50.548Z,7.20
2023-02-24T08:49:34.847Z,7.40
2023-02-24T08:52:20.406Z,6.27
2023-02-24T08:55:10.822Z,6.03
2023-02-24T08:57:56.337Z,6.63
2023-02-24T09:00:49.343Z,7.60
2023-02-24T09:03:35.352Z,12.13
2023-02-24T09:06:25.561Z,10.47
2023-02-24T09:09:18.826Z,13.00
2023-02-24T09:12:03.459Z,22.80
2023-02-24T09:14:49.484Z,17.80
2023-02-24T09:17:50.305Z,11.87
2023-02-24T09:20:54.141Z,12.63
2023-02-24T09:23:46.100Z,14.63
2023-02-24T09:26:33.130Z,11.57
2023-02-24T09:29:31.303Z,8.80
2023-02-24T09:32:15.355Z,8.00
2023-02-24T09:34:59.418Z,7.33
2023-02-24T09:37:44.662Z,8.77
2023-02-24T09:40:40.205Z,6.10
2023-02-24T09:43:28.001Z,7.30
2023-02-24T09:46:15.492Z,7.53
2023-02-24T09:49:06.766Z,12.27
2023-02-24T09:52:00.628Z,8.70
2023-02-24T09:55:05.854Z,7.70
2023-02-24T09:58:13.366Z,6.80
2023-02-24T10:01:21.306Z,14.17
2023-02-24T10:04:36.124Z,6.20
2023-02-24T10:07:28.254Z,5.57
2023-02-24T10:10:20.823Z,6.17
2023-02-24T10:13:17.156Z,5.93
2023-02-24T10:16:07.234Z,5.57
2023-02-24T10:19:01.424Z,4.77
2023-02-24T10:22:00.489Z,5.43
2023-02-24T10:24:48.804Z,5.97
2023-02-24T10:27:39.695Z,6.83
2023-02-24T10:30:41.269Z,5.80
2023-02-24T10:33:37.866Z,5.50
2023-02-24T10:36:30.656Z,6.57
2023-02-24T10:39:20.477Z,6.63
2023-02-24T10:42:20.196Z,6.93
2023-02-24T10:45:17.524Z,5.93
2023-02-24T10:48:02.204Z,6.00
2023-02-24T10:50:56.002Z,6.17
2023-02-24T10:53:41.172Z,5.07
2023-02-24T10:56:41.761Z,8.37
2023-02-24T10:59:58.491Z,9.83
2023-02-24T11:03:07.115Z,6.20
2023-02-24T11:06:08.298Z,7.10
2023-02-24T11:09:18.729Z,9.53
2023-02-24T11:12:30.662Z,7.30
2023-02-24T11:15:37.792Z,6.70
2023-02-24T11:18:25.645Z,9.23
2023-02-24T11:21:14.486Z,5.70
2023-02-24T11:24:03.104Z,6.03
2023-02-24T11:26:48.422Z,6.00
2023-02-24T11:29:46.715Z,6.60
2023-02-24T11:32:45.591Z,5.67
2023-02-24T11:35:38.475Z,5.83
2023-02-24T11:38:35.251Z,6.10
2023-02-24T11:41:26.067Z,6.40
2023-02-24T11:44:17.386Z,6.47
2023-02-24T11:47:07.441Z,5.83
2023-02-24T11:49:54.541Z,6.30
2023-02-24T11:52:46.890Z,5.83
2023-02-24T11:55:36.237Z,6.47
2023-02-24T11:58:26.648Z,8.00
2023-02-24T12:01:16.169Z,7.10
2023-02-24T12:04:12.080Z,9.50
2023-02-24T12:07:02.114Z,9.17
2023-02-24T12:09:54.845Z,8.23
2023-02-24T12:12:45.880Z,13.87
2023-02-24T12:15:34.307Z,6.30
2023-02-24T12:18:25.438Z,12.83
2023-02-24T12:21:14.957Z,7.83
2023-02-24T12:24:01.440Z,7.77
2023-02-24T12:26:56.117Z,6.97
2023-02-24T12:29:55.055Z,5.90
2023-02-24T12:32:58.520Z,8.83
2023-02-24T12:35:49.365Z,7.87
2023-02-24T12:38:46.919Z,6.37
2023-02-24T12:41:50.261Z,7.70
2023-02-24T12:44:44.192Z,7.17
2023-02-24T12:47:40.371Z,7.30
2023-02-24T12:50:34.161Z,8.43
2023-02-24T12:53:23.793Z,7.80
2023-02-24T12:56:16.854Z,7.27
2023-02-24T12:59:06.309Z,9.13
2023-02-24T13:01:56.300Z,7.73
2023-02-24T13:04:46.824Z,7.67
2023-02-24T13:07:50.183Z,8.20
2023-02-24T13:10:43.446Z,7.27
2023-02-24T13:13:33.395Z,6.73
2023-02-24T13:16:29.624Z,6.10
2023-02-24T13:19:23.461Z,7.80
2023-02-24T13:22:20.180Z,7.17
2023-02-24T13:25:21.576Z,6.37
2023-02-24T13:28:19.416Z,6.50
2023-02-24T13:31:06.604Z,8.03
2023-02-24T13:33:52.957Z,7.30
2023-02-24T13:36:48.282Z,6.50
2023-02-24T13:39:35.606Z,5.07
2023-02-24T13:42:25.101Z,7.00
2023-02-24T13:45:20.863Z,6.47
2023-02-24T13:48:19.737Z,6.07
2023-02-24T13:51:24.168Z,8.43
2023-02-24T13:54:24.446Z,6.67
2023-02-24T13:57:27.300Z,7.47
2023-02-24T14:00:22.034Z,7.03
2023-02-24T14:03:12.740Z,7.90
2023-02-24T14:05:57.505Z,8.87
2023-02-24T14:08:47.381Z,9.30
2023-02-24T14:11:36.062Z,9.03
2023-02-24T14:14:20.512Z,8.27
2023-02-24T14:17:04.717Z,11.87
2023-02-24T14:19:48.930Z,11.73
2023-02-24T14:22:34.763Z,9.60
2023-02-24T14:25:20.714Z,9.30
2023-02-24T14:28:05.078Z,13.17
2023-02-24T14:30:54.859Z,11.83
2023-02-24T14:33:40.625Z,9.93
2023-02-24T14:36:27.438Z,11.47
2023-02-24T14:39:17.153Z,10.00
2023-02-24T14:42:15.077Z,9.90
2023-02-24T14:45:00.193Z,8.73
2023-02-24T14:47:44.409Z,13.00
2023-02-24T14:50:31.781Z,12.40
2023-02-24T14:53:18.747Z,11.80
2023-02-24T14:56:06.293Z,9.70
2023-02-24T14:58:57.048Z,9.50
2023-02-24T15:01:43.609Z,12.10
2023-02-24T15:04:35.245Z,11.20
2023-02-24T15:07:23.815Z,12.33
2023-02-24T15:10:21.191Z,13.43
2023-02-24T15:13:13.899Z,14.07
2023-02-24T15:16:07.124Z,16.90
2023-02-24T15:18:52.770Z,15.90
2023-02-24T15:21:43.083Z,13.77
2023-02-24T15:24:28.986Z,13.27
2023-02-24T15:27:23.854Z,12.97
2023-02-24T15:30:26.417Z,31.00
2023-02-24T15:33:23.322Z,46.33
2023-02-24T15:36:11.826Z,15.17
2023-02-24T15:38:59.017Z,20.37
2023-02-24T15:41:44.875Z,20.67
2023-02-24T15:44:30.994Z,14.60
2023-02-24T15:47:24.006Z,20.10
2023-02-24T15:50:10.699Z,14.43
2023-02-24T15:52:56.044Z,16.73
2023-02-24T15:55:42.827Z,17.63
2023-02-24T15:58:27.405Z,16.67
2023-02-24T16:01:12.840Z,16.97
2023-02-24T16:03:56.957Z,18.43
2023-02-24T16:06:54.038Z,15.10
2023-02-24T16:09:42.035Z,16.07
2023-02-24T16:12:29.545Z,15.67
2023-02-24T16:15:20.325Z,16.07
2023-02-24T16:18:04.524Z,30.87
2023-02-24T16:20:54.479Z,56.53
2023-02-24T16:23:40.892Z,17.30
2023-02-24T16:26:25.347Z,31.57
2023-02-24T16:29:15.477Z,18.53
2023-02-24T16:31:59.588Z,17.07
2023-02-24T16:34:43.631Z,19.53
2023-02-24T16:37:29.880Z,17.77
2023-02-24T16:40:23.262Z,15.93
2023-02-24T16:43:07.039Z,16.73
2023-02-24T16:45:55.157Z,18.13
2023-02-24T16:48:40.642Z,27.07
2023-02-24T16:51:24.612Z,30.03
2023-02-24T16:54:08.749Z,22.53
2023-02-24T16:56:54.474Z,21.77
2023-02-24T16:59:38.288Z,24.50
2023-02-24T17:02:25.676Z,21.37
2023-02-24T17:05:17.289Z,28.93
2023-02-24T17:08:01.120Z,25.30
2023-02-24T17:10:48.111Z,22.57
2023-02-24T17:13:33.724Z,19.17
2023-02-24T17:16:17.668Z,29.60
2023-02-24T17:19:01.391Z,32.47
2023-02-24T17:21:46.138Z,32.43
2023-02-24T17:24:30.071Z,23.47
2023-02-24T17:27:13.953Z,25.33
2023-02-24T17:29:59.202Z,20.20
2023-02-24T17:32:43.475Z,21.17
2023-02-24T17:35:28.428Z,22.57
2023-02-24T17:38:13.580Z,20.00
2023-02-24T17:40:57.709Z,23.27
2023-02-24T17:43:41.730Z,21.90
2023-02-24T17:46:27.152Z,23.77
2023-02-24T17:49:11.380Z,22.97
2023-02-24T17:51:55.535Z,18.50
2023-02-24T17:54:39.462Z,20.27
2023-02-24T17:57:23.246Z,20.03
2023-02-24T18:00:08.816Z,19.30
2023-02-24T18:03:01.675Z,23.17
2023-02-24T18:05:47.151Z,24.50
2023-02-24T18:08:31.708Z,27.80
2023-02-24T18:11:17.864Z,22.60
2023-02-24T18:14:01.925Z,20.90
2023-02-24T18:16:46.248Z,18.67
2023-02-24T18:19:31.839Z,20.40
2023-02-24T18:22:16.138Z,20.57
2023-02-24T18:25:01.254Z,22.53
2023-02-24T18:27:45.194Z,21.10
2023-02-24T18:30:29.431Z,23.13
2023-02-24T18:33:13.743Z,20.13
2023-02-24T18:36:01.305Z,20.17
2023-02-24T18:38:45.900Z,20.90
2023-02-24T18:41:31.902Z,20.50
2023-02-24T18:44:15.802Z,20.20
2023-02-24T18:46:59.868Z,19.73
2023-02-24T18:49:43.795Z,21.27
2023-02-24T18:52:29.507Z,21.17
2023-02-24T18:55:13.478Z,20.83
2023-02-24T18:57:57.461Z,21.40
2023-02-24T19:00:41.692Z,24.07
2023-02-24T19:03:26.290Z,26.53
2023-02-24T19:06:10.962Z,28.20
2023-02-24T19:09:00.105Z,26.97
2023-02-24T19:11:44.410Z,30.13
2023-02-24T19:14:28.525Z,27.07
2023-02-24T19:17:12.830Z,23.83
2023-02-24T19:19:56.808Z,21.70
2023-02-24T19:22:41.468Z,26.37
2023-02-24T19:25:27.243Z,26.40
2023-02-24T19:28:13.119Z,21.60
2023-02-24T19:30:57.228Z,28.00
2023-02-24T19:33:41.230Z,21.93
2023-02-24T19:36:25.467Z,20.23
2023-02-24T19:39:12.285Z,18.03
2023-02-24T19:41:58.076Z,20.47
2023-02-24T19:44:42.367Z,20.03
2023-02-24T19:47:26.760Z,20.77
2023-02-24T19:50:12.673Z,20.73
2023-02-24T19:52:56.799Z,19.70
2023-02-24T19:55:40.814Z,20.50
2023-02-24T19:58:27.363Z,23.97
2023-02-24T20:01:13.740Z,21.63
2023-02-24T20:04:00.259Z,20.10
2023-02-24T20:06:44.332Z,20.90
2023-02-24T20:09:29.070Z,23.97
2023-02-24T20:12:13.291Z,19.40
2023-02-24T20:14:59.345Z,20.30
2023-02-24T20:17:43.468Z,22.03
2023-02-24T20:20:27.554Z,21.90
2023-02-24T20:23:13.557Z,20.70
2023-02-24T20:25:58.227Z,18.27
2023-02-24T20:28:42.488Z,16.40
2023-02-24T20:31:28.435Z,18.97
2023-02-24T20:34:13.677Z,15.63
2023-02-24T20:36:58.040Z,17.70
2023-02-24T20:39:42.229Z,17.67
2023-02-24T20:42:26.636Z,16.10
2023-02-24T20:45:12.623Z,14.13
2023-02-24T20:47:58.162Z,13.47
2023-02-24T20:50:43.428Z,14.17
2023-02-24T20:53:27.636Z,14.20
2023-02-24T20:56:19.471Z,15.83
2023-02-24T20:59:06.385Z,17.73
2023-02-24T21:01:51.448Z,17.37
2023-02-24T21:04:37.275Z,16.27
2023-02-24T21:07:21.306Z,14.63
2023-02-24T21:10:06.389Z,16.83
2023-02-24T21:12:52.791Z,11.00
2023-02-24T21:15:36.973Z,17.70
2023-02-24T21:18:22.148Z,13.47
2023-02-24T21:21:08.926Z,12.60
2023-02-24T21:23:53.395Z,18.40
2023-02-24T21:26:37.473Z,11.93
2023-02-24T21:29:21.523Z,16.43
2023-02-24T21:32:05.856Z,12.63
2023-02-24T21:34:50.040Z,13.50
2023-02-24T21:37:36.064Z,21.63
2023-02-24T21:40:20.305Z,16.30
2023-02-24T21:43:05.862Z,14.30
2023-02-24T21:45:49.812Z,20.83
2023-02-24T21:48:33.797Z,11.60
2023-02-24T21:51:18.348Z,16.47
2023-02-24T21:54:04.927Z,11.80
2023-02-24T21:56:49.079Z,12.77
2023-02-24T21:59:33.571Z,12.97
2023-02-24T22:02:17.998Z,12.17
2023-02-24T22:05:01.884Z,13.07
2023-02-24T22:07:48.236Z,14.13
2023-02-24T22:10:33.365Z,15.13
2023-02-24T22:13:17.400Z,12.70
2023-02-24T22:16:02.303Z,13.67
2023-02-24T22:18:46.661Z,12.57
2023-02-24T22:21:31.350Z,12.87
2023-02-24T22:24:17.381Z,12.40
2023-02-24T22:27:02.707Z,12.77
2023-02-24T22:29:46.599Z,13.20
2023-02-24T22:32:30.564Z,14.13
2023-02-24T22:35:14.684Z,14.73
2023-02-24T22:37:58.636Z,16.10
2023-02-24T22:40:42.601Z,16.67
2023-02-24T22:43:28.992Z,16.30
2023-02-24T22:46:15.075Z,22.87
2023-02-24T22:49:00.182Z,15.30
2023-02-24T22:51:44.047Z,19.33
2023-02-24T22:54:27.924Z,18.40
2023-02-24T22:57:12.422Z,18.20
2023-02-24T22:59:57.687Z,17.63
2023-02-24T23:02:41.722Z,21.40
2023-02-24T23:05:25.505Z,17.10
2023-02-24T23:08:10.220Z,17.07
2023-02-24T23:10:54.690Z,16.57
2023-02-24T23:13:38.514Z,20.17
2023-02-24T23:16:26.392Z,35.27
2023-02-24T23:19:13.713Z,20.17
2023-02-24T23:21:57.531Z,21.03
2023-02-24T23:24:41.699Z,20.63
2023-02-24T23:27:25.772Z,20.27
2023-02-24T23:30:12.341Z,20.97
2023-02-24T23:32:57.866Z,20.93
2023-02-24T23:35:42.421Z,23.03
2023-02-24T23:38:26.567Z,21.90
2023-02-24T23:41:11.516Z,22.97
2023-02-24T23:43:55.407Z,22.53
2023-02-24T23:46:39.532Z,23.93
2023-02-24T23:49:24.879Z,22.70
2023-02-24T23:52:10.215Z,22.60
2023-02-24T23:54:54.383Z,23.00
2023-02-24T23:57:38.434Z,24.00
